ADDS METAR Data INFO
IDs: Format: Raw Decoded Include TAF

Data at: 2352 UTC 23 Feb 2018

KLVM 232253Z AUTO 25006KT 10SM CLR M04/M12 A2991 RMK AO2 SLP198 T10391117 TSNO
KLVM 232153Z AUTO 29008KT 10SM CLR M04/M12 A2992 RMK AO2 SLP206 T10441117 TSNO
KLVM 232053Z AUTO 31011KT 10SM CLR M04/M12 A2995 RMK AO2 SLP217 T10441117 58022 TSNO
KLVM 231953Z AUTO 31014KT 10SM CLR M06/M12 A2997 RMK AO2 SLP224 T10561117 TSNO
KLVM 231153Z AUTO M17/M19 A3004 RMK AO2 SLP256 6//// 7//// T11671189 11156 21200 PWINO FZRANO $
KLVM 231053Z AUTO 31005KT 10SM OVC090 M17/M19 A3005 RMK AO2 SLP252 T11671194 $
KLVM 230953Z AUTO M17/M19 A3005 RMK AO2 SLP258 T11721194 PWINO FZRANO $
KLVM 230853Z AUTO 00000KT 10SM CLR M18/M21 A3006 RMK AO2 SLP263 6//// T11831206 $
KLVM 230753Z AUTO 23003KT M19/M21 A3007 RMK AO2 SLP269 T11891211 $
KLVM 230653Z AUTO 00000KT 10SM CLR M17/M19 A3007 RMK AO2 SLP266 T11671194 410671200
KLVM 230553Z AUTO 00000KT 10SM CLR M17/M19 A3007 RMK AO2 SLP268 T11671194 11094 21167 51007
KLVM 230453Z AUTO 09003KT 10SM CLR M14/M19 A3007 RMK AO2 SLP270 T11441189
KLVM 230353Z AUTO 10011KT 10SM CLR M13/M18 A3006 RMK AO2 SLP267 T11331183
KLVM 230253Z AUTO 10012KT 10SM CLR M12/M17 A3005 RMK AO2 SLP266 T11221172 51014
KLVM 230153Z AUTO 10012KT 10SM CLR M12/M17 A3004 RMK AO2 SLP265 T11171167
KLVM 230053Z AUTO 10014KT 10SM CLR M11/M16 A3002 RMK AO2 SLP253 T11061156
KLVM 222353Z AUTO 09014KT 10SM CLR M09/M15 A3000 RMK AO2 SLP245 T10941150 11067 21111 53003
KLVM 222253Z AUTO 08019KT 10SM FEW060 M08/M14 A2999 RMK AO2 SLP238 T10831139
KLVM 222153Z AUTO 09016KT 10SM FEW065 SCT085 M07/M13 A2999 RMK AO2 SLP230 T10721133
KLVM 222053Z AUTO 08015KT 10SM CLR M07/M13 A2999 RMK AO2 SLP227 T10671133 58008
KLVM 221953Z AUTO 09014KT 10SM CLR M08/M14 A3000 RMK AO2 SLP230 T10781139
KLVM 221853Z AUTO 10009KT 10SM FEW065 M09/M14 A3001 RMK AO2 SLP236 T10891139
KLVM 221753Z AUTO 08003KT 10SM OVC095 M11/M16 A3002 RMK AO2 SLP230 T11061156 11100 21200 51004
KLVM 221653Z AUTO 31003KT 10SM FEW070 OVC095 M13/M17 A3001 RMK AO2 SLP233 T11331172
KLVM 221553Z AUTO 32005KT 10SM OVC095 M16/M19 A3001 RMK AO2 SLP238 T11611189
KLVM 221453Z AUTO 32007KT 10SM OVC090 M18/M20 A3000 RMK AO2 SLP239 T11781200 53009
KLVM 221353Z AUTO 30006KT 10SM OVC090 M19/M22 A2999 RMK AO2 SLP235 T11941217
KLVM 221253Z AUTO 04004KT 10SM CLR M19/M21 A2998 RMK AO2 SLP232 T11891211
KLVM 221153Z AUTO 34006KT 10SM CLR M18/M21 A2997 RMK AO2 SLP226 I1000 I6000 T11831211 11083 21194 58004